mebel.ru alexa rank chart, mebel.ru alexa rank daily changes

mebel.ru alexa rank chart, mebel.ru alexa rank daily changes

mebel.ru
Actual rank:
162 484

RANK HISTORY

Date Rank Diff
2016/12/05 162 484 -511
2016/12/04 162 995 -559
2016/12/02 163 554 +1 025
2016/12/01 162 529 +1 846
2016/11/30 160 683 -1 045
2016/11/29 161 728 -686
2016/11/28 162 414 -2 343
2016/11/27 164 757 -807
2016/11/26 165 564 -1 139
2016/11/25 166 703 +1 815
2016/11/24 164 888 -1 348
2016/11/23 166 236 -4 069
2016/11/19 170 305 -627
2016/11/18 170 932 +1 449
2016/11/17 169 483 +466
2016/11/16 169 017 -151
2016/11/15 169 168 -3 488
2016/11/14 172 656 -2 203
2016/11/13 174 859 -39
2016/11/12 174 898 -1 416
2016/11/11 176 314 +3 451
2016/11/10 172 863 -1 084
2016/11/09 173 947 +950
2016/11/08 172 997 -3 423
2016/11/07 176 420 -3 795
2016/11/06 180 215 -1 513
2016/11/05 181 728 +2 720
2016/11/04 179 008 +3 084
2016/11/03 175 924 +3 355
2016/11/02 172 569 -1 681
2016/11/01 174 250 -429
2016/10/31 174 679 -1 482
2016/10/30 176 161 -601
2016/10/29 176 762 -489
2016/10/28 177 251 +2 229
2016/10/27 175 022 +666
2016/10/26 174 356 +1 029
2016/10/25 173 327 -2 293
2016/10/24 175 620 -263
2016/10/23 175 883 -1 345
2016/10/22 177 228 +1 354
2016/10/21 175 874 +1 172
2016/10/20 174 702 -375
2016/10/19 175 077 +840
2016/10/18 174 237 -1 697
2016/10/17 175 934 -2 172
2016/10/16 178 106 -2 643
2016/10/15 180 749 -18 072
2016/10/14 198 821 +487
2016/10/13 198 334 +552
2016/10/12 197 782 -3 096
2016/10/11 200 878 -4 360
2016/10/10 205 238 +6
2016/10/09 205 232 -49
2016/10/08 205 281 +12 973
2016/10/07 192 308 -8 664
2016/10/06 200 972

WIDGET FOR YOUR SITE

DOMAINS WITH THE NEAREST RANK

Domain Rank
hyogo-c.ed.jp 162 479
womensarticle.com 162 480
sonokinetic.net 162 481
bigcinema-hd.tv 162 482
modaselvim.com 162 483
mebel.ru 162 484
inventorspot.com 162 485
mrinsta.com 162 486
jawatankini.com 162 487
orion-grosshandel-shop.com 162 488
yysf.cc 162 489

DOMAINS WITH THE NEAREST RANK BY TLD .ru

Domain Rank
irkutskenergo.ru 162 407
miuz.ru 162 415
domklubka.ru 162 417
redmediatv.ru 162 429
sk.ru 162 460
mebel.ru 162 484
bookoteka.ru 162 524
zakacha.ru 162 534
mironline.ru 162 548
dnr-online.ru 162 551
ubilya.ru 162 607